sensor_id;sensor_type;location;lat;lon;timestamp;pressure;altitude;pressure_sealevel;temperature;humidity
4085;BME280;2057;50.858;6.572;2024-01-15T00:00:38;99188.03;;;-0.57;100.00
4085;BME280;2057;50.858;6.572;2024-01-15T00:03:04;99179.13;;;-0.54;100.00
4085;BME280;2057;50.858;6.572;2024-01-15T00:05:29;99172.41;;;-0.55;100.00
4085;BME280;2057;50.858;6.572;2024-01-15T00:07:55;99166.44;;;-0.57;100.00
4085;BME280;2057;50.858;6.572;2024-01-15T00:10:20;99170.03;;;-0.53;100.00
4085;BME280;2057;50.858;6.572;2024-01-15T00:12:45;99161.56;;;-0.55;100.00
4085;BME280;2057;50.858;6.572;2024-01-15T00:15:11;99166.22;;;-0.60;100.00
4085;BME280;2057;50.858;6.572;2024-01-15T00:17:36;99163.28;;;-0.66;100.00
4085;BME280;2057;50.858;6.572;2024-01-15T00:20:01;99156.69;;;-0.66;100.00
4085;BME280;2057;50.858;6.572;2024-01-15T00:22:29;99154.22;;;-0.66;100.00
4085;BME280;2057;50.858;6.572;2024-01-15T00:24:54;99154.22;;;-0.66;100.00
4085;BME280;2057;50.858;6.572;2024-01-15T00:27:20;99145.09;;;-0.65;100.00
4085;BME280;2057;50.858;6.572;2024-01-15T00:29:45;99144.09;;;-0.67;100.00
4085;BME280;2057;50.858;6.572;2024-01-15T00:32:10;99141.84;;;-0.64;100.00
4085;BME280;2057;50.858;6.572;2024-01-15T00:34:36;99139.69;;;-0.59;100.00
4085;BME280;2057;50.858;6.572;2024-01-15T00:37:03;99130.69;;;-0.57;100.00
4085;BME280;2057;50.858;6.572;2024-01-15T00:39:32;99133.53;;;-0.53;100.00
4085;BME280;2057;50.858;6.572;2024-01-15T00:41:57;99142.94;;;-0.49;100.00
4085;BME280;2057;50.858;6.572;2024-01-15T00:44:25;99126.78;;;-0.42;100.00
4085;BME280;2057;50.858;6.572;2024-01-15T00:46:58;99139.25;;;-0.42;100.00
4085;BME280;2057;50.858;6.572;2024-01-15T00:49:24;99128.53;;;-0.41;100.00
4085;BME280;2057;50.858;6.572;2024-01-15T00:51:49;99122.97;;;-0.37;100.00
4085;BME280;2057;50.858;6.572;2024-01-15T00:54:15;99128.94;;;-0.35;100.00
4085;BME280;2057;50.858;6.572;2024-01-15T00:56:40;99131.53;;;-0.33;100.00
4085;BME280;2057;50.858;6.572;2024-01-15T00:59:05;99123.97;;;-0.35;100.00
4085;BME280;2057;50.858;6.572;2024-01-15T01:01:31;99130.44;;;-0.37;100.00
4085;BME280;2057;50.858;6.572;2024-01-15T01:03:57;99125.16;;;-0.41;100.00
4085;BME280;2057;50.858;6.572;2024-01-15T01:06:22;99126.78;;;-0.42;100.00
4085;BME280;2057;50.858;6.572;2024-01-15T01:08:47;99124.50;;;-0.39;100.00
4085;BME280;2057;50.858;6.572;2024-01-15T01:11:14;99133.28;;;-0.44;100.00
4085;BME280;2057;50.858;6.572;2024-01-15T01:13:39;99130.34;;;-0.38;100.00
4085;BME280;2057;50.858;6.572;2024-01-15T01:16:05;99124.63;;;-0.37;100.00
4085;BME280;2057;50.858;6.572;2024-01-15T01:18:30;99134.78;;;-0.34;100.00
4085;BME280;2057;50.858;6.572;2024-01-15T01:20:55;99136.97;;;-0.27;100.00
4085;BME280;2057;50.858;6.572;2024-01-15T01:23:21;99130.25;;;-0.28;100.00
4085;BME280;2057;50.858;6.572;2024-01-15T01:25:46;99139.34;;;-0.28;100.00
4085;BME280;2057;50.858;6.572;2024-01-15T01:28:11;99134.91;;;-0.33;100.00
4085;BME280;2057;50.858;6.572;2024-01-15T01:30:39;99137.19;;;-0.36;100.00
4085;BME280;2057;50.858;6.572;2024-01-15T01:33:04;99131.22;;;-0.38;100.00
4085;BME280;2057;50.858;6.572;2024-01-15T01:35:30;99129.72;;;-0.48;100.00
4085;BME280;2057;50.858;6.572;2024-01-15T01:37:55;99123.00;;;-0.49;100.00
4085;BME280;2057;50.858;6.572;2024-01-15T01:40:20;99122.00;;;-0.51;100.00
4085;BME280;2057;50.858;6.572;2024-01-15T01:42:46;99119.41;;;-0.52;100.00
4085;BME280;2057;50.858;6.572;2024-01-15T01:45:11;99129.28;;;-0.54;100.00
4085;BME280;2057;50.858;6.572;2024-01-15T01:47:37;99122.66;;;-0.53;100.00
4085;BME280;2057;50.858;6.572;2024-01-15T01:50:03;99114.75;;;-0.59;100.00
4085;BME280;2057;50.858;6.572;2024-01-15T01:52:28;99131.56;;;-0.57;100.00
4085;BME280;2057;50.858;6.572;2024-01-15T01:54:54;99125.25;;;-0.52;100.00
4085;BME280;2057;50.858;6.572;2024-01-15T01:57:20;99133.63;;;-0.51;100.00
4085;BME280;2057;50.858;6.572;2024-01-15T01:59:45;99124.63;;;-0.49;100.00
4085;BME280;2057;50.858;6.572;2024-01-15T02:02:11;99125.03;;;-0.43;100.00
4085;BME280;2057;50.858;6.572;2024-01-15T02:04:37;99126.56;;;-0.45;100.00
4085;BME280;2057;50.858;6.572;2024-01-15T02:07:03;99129.06;;;-0.45;100.00
4085;BME280;2057;50.858;6.572;2024-01-15T02:09:29;99133.72;;;-0.50;100.00
4085;BME280;2057;50.858;6.572;2024-01-15T02:11:55;99131.53;;;-0.45;100.00
4085;BME280;2057;50.858;6.572;2024-01-15T02:14:23;99131.97;;;-0.51;100.00
4085;BME280;2057;50.858;6.572;2024-01-15T02:16:48;99126.56;;;-0.45;100.00
4085;BME280;2057;50.858;6.572;2024-01-15T02:19:17;99134.16;;;-0.43;100.00
4085;BME280;2057;50.858;6.572;2024-01-15T02:21:43;99129.47;;;-0.51;100.00
4085;BME280;2057;50.858;6.572;2024-01-15T02:24:09;99134.03;;;-0.45;100.00
4085;BME280;2057;50.858;6.572;2024-01-15T02:26:34;99123.75;;;-0.50;100.00
4085;BME280;2057;50.858;6.572;2024-01-15T02:29:01;99130.47;;;-0.49;100.00
4085;BME280;2057;50.858;6.572;2024-01-15T02:31:27;99121.91;;;-0.52;100.00
4085;BME280;2057;50.858;6.572;2024-01-15T02:33:52;99121.38;;;-0.48;100.00
4085;BME280;2057;50.858;6.572;2024-01-15T02:36:17;99132.63;;;-0.53;100.00
4085;BME280;2057;50.858;6.572;2024-01-15T02:38:42;99121.56;;;-0.45;100.00
4085;BME280;2057;50.858;6.572;2024-01-15T02:41:10;99131.13;;;-0.51;100.00
4085;BME280;2057;50.858;6.572;2024-01-15T02:43:35;99120.94;;;-0.54;100.00
4085;BME280;2057;50.858;6.572;2024-01-15T02:46:01;99121.81;;;-0.54;100.00
4085;BME280;2057;50.858;6.572;2024-01-15T02:48:26;99117.03;;;-0.51;100.00
4085;BME280;2057;50.858;6.572;2024-01-15T02:50:51;99109.78;;;-0.48;100.00
4085;BME280;2057;50.858;6.572;2024-01-15T02:53:17;99115.50;;;-0.49;100.00
4085;BME280;2057;50.858;6.572;2024-01-15T02:55:42;99121.16;;;-0.51;100.00
4085;BME280;2057;50.858;6.572;2024-01-15T02:58:07;99127.75;;;-0.52;100.00
4085;BME280;2057;50.858;6.572;2024-01-15T03:00:38;99137.72;;;-0.52;100.00
4085;BME280;2057;50.858;6.572;2024-01-15T03:03:03;99132.72;;;-0.52;100.00
4085;BME280;2057;50.858;6.572;2024-01-15T03:05:28;99132.84;;;-0.50;100.00
4085;BME280;2057;50.858;6.572;2024-01-15T03:07:54;99136.53;;;-0.45;100.00
4085;BME280;2057;50.858;6.572;2024-01-15T03:10:19;99133.28;;;-0.44;100.00
4085;BME280;2057;50.858;6.572;2024-01-15T03:12:44;99126.03;;;-0.41;100.00
4085;BME280;2057;50.858;6.572;2024-01-15T03:15:10;99128.53;;;-0.41;100.00
4085;BME280;2057;50.858;6.572;2024-01-15T03:17:38;99124.50;;;-0.39;100.00
4085;BME280;2057;50.858;6.572;2024-01-15T03:20:04;99123.97;;;-0.35;100.00
4085;BME280;2057;50.858;6.572;2024-01-15T03:22:29;99111.81;;;-0.30;100.00
4085;BME280;2057;50.858;6.572;2024-01-15T03:24:55;99110.16;;;-0.29;100.00
4085;BME280;2057;50.858;6.572;2024-01-15T03:27:20;99115.47;;;-0.25;100.00
4085;BME280;2057;50.858;6.572;2024-01-15T03:29:48;99113.56;;;-0.29;100.00
4085;BME280;2057;50.858;6.572;2024-01-15T03:32:13;99110.97;;;-0.30;100.00
4085;BME280;2057;50.858;6.572;2024-01-15T03:34:39;99108.75;;;-0.26;100.00
4085;BME280;2057;50.858;6.572;2024-01-15T03:37:04;99113.44;;;-0.30;100.00
4085;BME280;2057;50.858;6.572;2024-01-15T03:39:29;99114.41;;;-0.28;100.00
4085;BME280;2057;50.858;6.572;2024-01-15T03:41:57;99107.91;;;-0.26;100.00
4085;BME280;2057;50.858;6.572;2024-01-15T03:44:23;99111.16;;;-0.27;100.00
4085;BME280;2057;50.858;6.572;2024-01-15T03:46:48;99109.53;;;-0.27;100.00
4085;BME280;2057;50.858;6.572;2024-01-15T03:49:13;99105.50;;;-0.25;100.00
4085;BME280;2057;50.858;6.572;2024-01-15T03:51:39;99102.25;;;-0.24;100.00
4085;BME280;2057;50.858;6.572;2024-01-15T03:54:06;99103.31;;;-0.20;100.00
4085;BME280;2057;50.858;6.572;2024-01-15T03:56:32;99105.81;;;-0.20;100.00
4085;BME280;2057;50.858;6.572;2024-01-15T03:58:57;99101.81;;;-0.18;100.00
4085;BME280;2057;50.858;6.572;2024-01-15T04:01:22;99102.69;;;-0.18;100.00
4085;BME280;2057;50.858;6.572;2024-01-15T04:03:48;99104.41;;;-0.17;100.00
4085;BME280;2057;50.858;6.572;2024-01-15T04:06:15;99105.28;;;-0.16;100.00
4085;BME280;2057;50.858;6.572;2024-01-15T04:08:40;99095.22;;;-0.18;100.00
4085;BME280;2057;50.858;6.572;2024-01-15T04:11:06;99095.41;;;-0.14;100.00
4085;BME280;2057;50.858;6.572;2024-01-15T04:13:34;99098.00;;;-0.13;100.00
4085;BME280;2057;50.858;6.572;2024-01-15T04:16:00;99093.97;;;-0.11;100.00
4085;BME280;2057;50.858;6.572;2024-01-15T04:18:28;99088.25;;;-0.10;100.00
4085;BME280;2057;50.858;6.572;2024-01-15T04:20:53;99088.47;;;-0.07;100.00
4085;BME280;2057;50.858;6.572;2024-01-15T04:23:19;99080.00;;;-0.09;100.00
4085;BME280;2057;50.858;6.572;2024-01-15T04:25:44;99084.22;;;-0.08;100.00
4085;BME280;2057;50.858;6.572;2024-01-15T04:28:11;99081.72;;;-0.08;100.00
4085;BME280;2057;50.858;6.572;2024-01-15T04:30:36;99079.47;;;-0.05;100.00
4085;BME280;2057;50.858;6.572;2024-01-15T04:33:02;99078.34;;;0.04;100.00
4085;BME280;2057;50.858;6.572;2024-01-15T04:35:27;99076.63;;;0.03;100.00
4085;BME280;2057;50.858;6.572;2024-01-15T04:37:52;99064.13;;;0.03;100.00
4085;BME280;2057;50.858;6.572;2024-01-15T04:40:18;99067.94;;;-0.03;100.00
4085;BME280;2057;50.858;6.572;2024-01-15T04:42:43;99063.06;;;-0.01;100.00
4085;BME280;2057;50.858;6.572;2024-01-15T04:45:11;99060.88;;;0.04;100.00
4085;BME280;2057;50.858;6.572;2024-01-15T04:47:36;99060.09;;;0.05;100.00
4085;BME280;2057;50.858;6.572;2024-01-15T04:50:03;99058.94;;;-0.01;100.00
4085;BME280;2057;50.858;6.572;2024-01-15T04:52:28;99068.25;;;0.02;100.00
4085;BME280;2057;50.858;6.572;2024-01-15T04:54:53;99067.69;;;0.06;100.00
4085;BME280;2057;50.858;6.572;2024-01-15T04:57:19;99060.88;;;0.04;100.00
4085;BME280;2057;50.858;6.572;2024-01-15T04:59:44;99062.41;;;0.02;100.00
4085;BME280;2057;50.858;6.572;2024-01-15T05:02:09;99060.88;;;0.04;100.00
4085;BME280;2057;50.858;6.572;2024-01-15T05:04:35;99056.84;;;0.06;100.00
4085;BME280;2057;50.858;6.572;2024-01-15T05:07:00;99067.88;;;0.09;100.00
4085;BME280;2057;50.858;6.572;2024-01-15T05:09:25;99052.44;;;0.02;100.00
4085;BME280;2057;50.858;6.572;2024-01-15T05:11:50;99049.25;;;0.04;100.00
4085;BME280;2057;50.858;6.572;2024-01-15T05:14:22;99050.13;;;0.05;100.00
4085;BME280;2057;50.858;6.572;2024-01-15T05:16:48;99041.47;;;-0.01;100.00
4085;BME280;2057;50.858;6.572;2024-01-15T05:19:13;99042.53;;;0.03;100.00
4085;BME280;2057;50.858;6.572;2024-01-15T05:21:39;99045.13;;;0.05;100.00
4085;BME280;2057;50.858;6.572;2024-01-15T05:24:04;99050.38;;;-0.04;100.00
4085;BME280;2057;50.858;6.572;2024-01-15T05:26:29;99051.44;;;-0.01;100.00
4085;BME280;2057;50.858;6.572;2024-01-15T05:28:55;99044.94;;;0.02;100.00
4085;BME280;2057;50.858;6.572;2024-01-15T05:31:20;99049.94;;;0.02;100.00
4085;BME280;2057;50.858;6.572;2024-01-15T05:33:48;99041.69;;;0.03;100.00
4085;BME280;2057;50.858;6.572;2024-01-15T05:36:13;99039.28;;;0.04;100.00
4085;BME280;2057;50.858;6.572;2024-01-15T05:38:39;99051.44;;;-0.01;100.00
4085;BME280;2057;50.858;6.572;2024-01-15T05:41:05;99048.97;;;-0.01;100.00
4085;BME280;2057;50.858;6.572;2024-01-15T05:43:30;99033.00;;;-0.03;100.00
4085;BME280;2057;50.858;6.572;2024-01-15T05:45:55;99038.44;;;0.04;100.00
4085;BME280;2057;50.858;6.572;2024-01-15T05:48:21;99045.91;;;0.04;100.00
4085;BME280;2057;50.858;6.572;2024-01-15T05:50:48;99040.34;;;0.08;100.00
4085;BME280;2057;50.858;6.572;2024-01-15T05:53:13;99037.09;;;0.09;100.00
4085;BME280;2057;50.858;6.572;2024-01-15T05:55:39;99043.81;;;0.10;100.00
4085;BME280;2057;50.858;6.572;2024-01-15T05:58:07;99039.81;;;0.12;100.00
4085;BME280;2057;50.858;6.572;2024-01-15T06:00:32;99040.88;;;0.15;100.00
4085;BME280;2057;50.858;6.572;2024-01-15T06:03:00;99033.47;;;0.17;100.00
4085;BME280;2057;50.858;6.572;2024-01-15T06:05:25;99030.31;;;0.20;100.00
4085;BME280;2057;50.858;6.572;2024-01-15T06:07:51;99034.16;;;0.14;100.00
4085;BME280;2057;50.858;6.572;2024-01-15T06:10:16;99041.53;;;0.13;100.00
4085;BME280;2057;50.858;6.572;2024-01-15T06:12:43;99031.72;;;0.03;100.00
4085;BME280;2057;50.858;6.572;2024-01-15T06:15:09;99038.44;;;0.04;100.00
4085;BME280;2057;50.858;6.572;2024-01-15T06:17:34;99028.84;;;0.10;100.00
4085;BME280;2057;50.858;6.572;2024-01-15T06:19:59;99035.16;;;0.05;100.00
4085;BME280;2057;50.858;6.572;2024-01-15T06:22:25;99028.25;;;0.01;100.00
4085;BME280;2057;50.858;6.572;2024-01-15T06:24:53;99026.19;;;-0.05;100.00
4085;BME280;2057;50.858;6.572;2024-01-15T06:27:18;99026.97;;;-0.06;100.00
4085;BME280;2057;50.858;6.572;2024-01-15T06:29:47;99024.78;;;-0.02;100.00
4085;BME280;2057;50.858;6.572;2024-01-15T06:32:13;99024.69;;;-0.03;100.00
4085;BME280;2057;50.858;6.572;2024-01-15T06:34:38;99015.69;;;-0.01;100.00
4085;BME280;2057;50.858;6.572;2024-01-15T06:37:04;99016.75;;;0.03;100.00
4085;BME280;2057;50.858;6.572;2024-01-15T06:39:29;99006.34;;;-0.04;100.00
4085;BME280;2057;50.858;6.572;2024-01-15T06:41:55;99006.75;;;0.03;100.00
4085;BME280;2057;50.858;6.572;2024-01-15T06:44:20;99009.81;;;-0.02;100.00
4085;BME280;2057;50.858;6.572;2024-01-15T06:46:46;98999.81;;;-0.02;100.00
4085;BME280;2057;50.858;6.572;2024-01-15T06:49:12;99008.28;;;0.01;100.00
4085;BME280;2057;50.858;6.572;2024-01-15T06:51:38;99009.94;;;0.00;100.00
4085;BME280;2057;50.858;6.572;2024-01-15T06:54:05;99007.44;;;0.00;100.00
4085;BME280;2057;50.858;6.572;2024-01-15T06:56:31;99006.94;;;0.06;100.00
4085;BME280;2057;50.858;6.572;2024-01-15T06:58:57;99009.25;;;0.03;100.00
4085;BME280;2057;50.858;6.572;2024-01-15T07:01:22;98990.06;;;0.02;100.00
4085;BME280;2057;50.858;6.572;2024-01-15T07:03:48;99007.06;;;0.07;100.00
4085;BME280;2057;50.858;6.572;2024-01-15T07:06:15;99002.94;;;0.08;100.00
4085;BME280;2057;50.858;6.572;2024-01-15T07:08:44;98991.66;;;0.13;100.00
4085;BME280;2057;50.858;6.572;2024-01-15T07:11:11;98992.41;;;0.12;100.00
4085;BME280;2057;50.858;6.572;2024-01-15T07:13:39;98978.69;;;0.19;100.00
4085;BME280;2057;50.858;6.572;2024-01-15T07:16:07;98986.94;;;0.18;100.00
4085;BME280;2057;50.858;6.572;2024-01-15T07:18:32;98978.69;;;0.19;100.00
4085;BME280;2057;50.858;6.572;2024-01-15T07:20:58;98986.28;;;0.20;100.00
4085;BME280;2057;50.858;6.572;2024-01-15T07:23:24;98981.69;;;0.26;100.00
4085;BME280;2057;50.858;6.572;2024-01-15T07:25:49;98979.41;;;0.29;100.00
4085;BME280;2057;50.858;6.572;2024-01-15T07:28:15;98983.59;;;0.30;100.00
4085;BME280;2057;50.858;6.572;2024-01-15T07:30:41;98977.00;;;0.31;100.00
4085;BME280;2057;50.858;6.572;2024-01-15T07:33:06;98983.59;;;0.30;100.00
4085;BME280;2057;50.858;6.572;2024-01-15T07:35:32;98982.97;;;0.33;100.00
4085;BME280;2057;50.858;6.572;2024-01-15T07:37:57;98987.06;;;0.33;100.00
4085;BME280;2057;50.858;6.572;2024-01-15T07:40:22;98983.81;;;0.34;100.00
4085;BME280;2057;50.858;6.572;2024-01-15T07:42:48;98981.63;;;0.38;100.00
4085;BME280;2057;50.858;6.572;2024-01-15T07:45:13;98988.03;;;0.35;100.00
4085;BME280;2057;50.858;6.572;2024-01-15T07:47:38;98983.72;;;0.32;100.00
4085;BME280;2057;50.858;6.572;2024-01-15T07:50:04;98980.34;;;0.31;100.00
4085;BME280;2057;50.858;6.572;2024-01-15T07:52:30;98980.00;;;0.39;100.00
4085;BME280;2057;50.858;6.572;2024-01-15T07:54:56;98985.00;;;0.39;100.00
4085;BME280;2057;50.858;6.572;2024-01-15T07:57:21;98993.25;;;0.38;100.00
4085;BME280;2057;50.858;6.572;2024-01-15T07:59:47;98989.41;;;0.43;100.00
4085;BME280;2057;50.858;6.572;2024-01-15T08:02:13;98988.84;;;0.47;100.00
4085;BME280;2057;50.858;6.572;2024-01-15T08:04:38;98981.91;;;0.43;100.00
4085;BME280;2057;50.858;6.572;2024-01-15T08:07:04;98989.41;;;0.43;100.00
4085;BME280;2057;50.858;6.572;2024-01-15T08:09:31;98983.06;;;0.48;100.00
4085;BME280;2057;50.858;6.572;2024-01-15T08:11:56;98988.16;;;0.50;100.00
4085;BME280;2057;50.858;6.572;2024-01-15T08:14:21;98988.94;;;0.49;100.00
4085;BME280;2057;50.858;6.572;2024-01-15T08:16:47;98982.22;;;0.47;100.00
4085;BME280;2057;50.858;6.572;2024-01-15T08:19:12;98991.13;;;0.44;100.00
4085;BME280;2057;50.858;6.572;2024-01-15T08:21:37;98972.72;;;0.55;100.00
4085;BME280;2057;50.858;6.572;2024-01-15T08:24:03;98986.34;;;0.47;100.00
4085;BME280;2057;50.858;6.572;2024-01-15T08:26:29;98984.78;;;0.49;100.00
4085;BME280;2057;50.858;6.572;2024-01-15T08:28:55;98990.19;;;0.55;100.00
4085;BME280;2057;50.858;6.572;2024-01-15T08:31:20;98985.84;;;0.53;100.00
4085;BME280;2057;50.858;6.572;2024-01-15T08:33:46;98996.94;;;0.56;100.00
4085;BME280;2057;50.858;6.572;2024-01-15T08:36:11;98979.63;;;0.59;100.00
4085;BME280;2057;50.858;6.572;2024-01-15T08:38:37;98985.38;;;0.58;100.00
4085;BME280;2057;50.858;6.572;2024-01-15T08:41:02;98974.53;;;0.58;100.00
4085;BME280;2057;50.858;6.572;2024-01-15T08:43:30;98977.13;;;0.59;100.00
4085;BME280;2057;50.858;6.572;2024-01-15T08:45:56;98975.50;;;0.60;100.00
4085;BME280;2057;50.858;6.572;2024-01-15T08:48:22;98978.28;;;0.51;100.00
4085;BME280;2057;50.858;6.572;2024-01-15T08:50:47;98980.22;;;0.55;100.00
4085;BME280;2057;50.858;6.572;2024-01-15T08:53:13;98976.84;;;0.55;100.00
4085;BME280;2057;50.858;6.572;2024-01-15T08:55:38;98975.97;;;0.54;100.00
4085;BME280;2057;50.858;6.572;2024-01-15T08:58:06;98979.03;;;0.50;100.00
4085;BME280;2057;50.858;6.572;2024-01-15T09:00:32;98991.72;;;0.53;100.00
4085;BME280;2057;50.858;6.572;2024-01-15T09:02:57;98991.63;;;0.52;100.00
4085;BME280;2057;50.858;6.572;2024-01-15T09:05:22;99003.03;;;0.48;100.00
4085;BME280;2057;50.858;6.572;2024-01-15T09:07:48;99000.25;;;0.43;100.00
4085;BME280;2057;50.858;6.572;2024-01-15T09:10:14;98997.06;;;0.33;100.00
4085;BME280;2057;50.858;6.572;2024-01-15T09:12:39;99005.13;;;0.28;100.00
4085;BME280;2057;50.858;6.572;2024-01-15T09:15:05;99008.28;;;0.26;100.00
4085;BME280;2057;50.858;6.572;2024-01-15T09:17:31;99012.09;;;0.21;100.00
4085;BME280;2057;50.858;6.572;2024-01-15T09:19:56;99026.75;;;0.16;100.00
4085;BME280;2057;50.858;6.572;2024-01-15T09:22:22;99033.53;;;0.05;100.00
4085;BME280;2057;50.858;6.572;2024-01-15T09:24:47;99031.41;;;-0.02;100.00
4085;BME280;2057;50.858;6.572;2024-01-15T09:27:13;99036.84;;;-0.08;100.00
4085;BME280;2057;50.858;6.572;2024-01-15T09:29:38;99040.53;;;-0.14;100.00
4085;BME280;2057;50.858;6.572;2024-01-15T09:32:06;99035.09;;;-0.09;100.00
4085;BME280;2057;50.858;6.572;2024-01-15T09:34:33;99043.91;;;-0.14;100.00
4085;BME280;2057;50.858;6.572;2024-01-15T09:36:58;99040.19;;;-0.07;100.00
4085;BME280;2057;50.858;6.572;2024-01-15T09:39:25;99049.09;;;-0.11;100.00
4085;BME280;2057;50.858;6.572;2024-01-15T09:41:52;99049.66;;;-0.15;100.00
4085;BME280;2057;50.858;6.572;2024-01-15T09:44:20;99046.59;;;-0.11;100.00
4085;BME280;2057;50.858;6.572;2024-01-15T09:46:48;99056.78;;;-0.08;100.00
4085;BME280;2057;50.858;6.572;2024-01-15T09:49:16;99049.09;;;-0.11;100.00
4085;BME280;2057;50.858;6.572;2024-01-15T09:51:42;99049.66;;;-0.15;100.00
4085;BME280;2057;50.858;6.572;2024-01-15T09:54:08;99048.78;;;-0.16;100.00
4085;BME280;2057;50.858;6.572;2024-01-15T09:56:34;99046.09;;;-0.19;100.00
4085;BME280;2057;50.858;6.572;2024-01-15T09:59:00;99049.34;;;-0.20;100.00
4085;BME280;2057;50.858;6.572;2024-01-15T10:01:26;99043.38;;;-0.22;100.00
4085;BME280;2057;50.858;6.572;2024-01-15T10:03:51;99057.50;;;-0.22;100.00
4085;BME280;2057;50.858;6.572;2024-01-15T10:06:18;99065.91;;;-0.20;100.00
4085;BME280;2057;50.858;6.572;2024-01-15T10:08:50;99062.66;;;-0.19;100.00
4085;BME280;2057;50.858;6.572;2024-01-15T10:11:16;99060.19;;;-0.19;100.00
4085;BME280;2057;50.858;6.572;2024-01-15T10:13:44;99059.50;;;-0.17;100.00
4085;BME280;2057;50.858;6.572;2024-01-15T10:16:10;99060.41;;;-0.16;100.00
4085;BME280;2057;50.858;6.572;2024-01-15T10:18:36;99056.72;;;-0.21;100.00
4085;BME280;2057;50.858;6.572;2024-01-15T10:21:06;99068.00;;;-0.26;100.00
4085;BME280;2057;50.858;6.572;2024-01-15T10:23:32;99076.47;;;-0.24;100.00
4085;BME280;2057;50.858;6.572;2024-01-15T10:25:57;99078.84;;;-0.26;100.00
4085;BME280;2057;50.858;6.572;2024-01-15T10:28:26;99067.16;;;-0.27;100.00
4085;BME280;2057;50.858;6.572;2024-01-15T10:30:55;99076.06;;;-0.30;100.00
4085;BME280;2057;50.858;6.572;2024-01-15T10:33:25;99077.66;;;-0.31;100.00
4085;BME280;2057;50.858;6.572;2024-01-15T10:35:56;99074.50;;;-0.28;100.00
4085;BME280;2057;50.858;6.572;2024-01-15T10:38:22;99075.94;;;-0.32;100.00
4085;BME280;2057;50.858;6.572;2024-01-15T10:40:52;99070.19;;;-0.31;100.00
4085;BME280;2057;50.858;6.572;2024-01-15T10:43:18;99069.97;;;-0.34;100.00
4085;BME280;2057;50.858;6.572;2024-01-15T10:45:45;99073.56;;;-0.30;100.00
4085;BME280;2057;50.858;6.572;2024-01-15T10:48:10;99067.47;;;-0.22;100.00
4085;BME280;2057;50.858;6.572;2024-01-15T10:50:36;99065.84;;;-0.34;100.00
4085;BME280;2057;50.858;6.572;2024-01-15T10:53:02;99065.44;;;-0.40;100.00
4085;BME280;2057;50.858;6.572;2024-01-15T10:55:28;99064.34;;;-0.32;100.00
4085;BME280;2057;50.858;6.572;2024-01-15T10:57:54;99057.19;;;-0.39;100.00
4085;BME280;2057;50.858;6.572;2024-01-15T11:00:25;99053.94;;;-0.38;100.00
4085;BME280;2057;50.858;6.572;2024-01-15T11:02:51;99060.88;;;-0.34;100.00
4085;BME280;2057;50.858;6.572;2024-01-15T11:05:18;99058.91;;;-0.38;100.00
4085;BME280;2057;50.858;6.572;2024-01-15T11:07:48;99058.28;;;-0.35;100.00
4085;BME280;2057;50.858;6.572;2024-01-15T11:10:43;99059.88;;;-0.36;100.00
4085;BME280;2057;50.858;6.572;2024-01-15T11:16:03;99052.81;;;-0.29;100.00
4085;BME280;2057;50.858;6.572;2024-01-15T11:18:35;99064.00;;;-0.24;100.00
4085;BME280;2057;50.858;6.572;2024-01-15T11:23:42;99068.22;;;-0.23;100.00
4085;BME280;2057;50.858;6.572;2024-01-15T11:26:38;99059.63;;;-0.15;100.00
4085;BME280;2057;50.858;6.572;2024-01-15T11:34:10;99054.84;;;-0.12;100.00
4085;BME280;2057;50.858;6.572;2024-01-15T11:41:58;99058.09;;;-0.01;100.00
4085;BME280;2057;50.858;6.572;2024-01-15T11:47:00;99064.91;;;0.02;100.00
4085;BME280;2057;50.858;6.572;2024-01-15T11:50:00;99060.09;;;0.05;100.00
4085;BME280;2057;50.858;6.572;2024-01-15T11:52:39;99064.22;;;0.04;100.00
4085;BME280;2057;50.858;6.572;2024-01-15T11:55:14;99058.78;;;0.10;100.00
4085;BME280;2057;50.858;6.572;2024-01-15T11:57:52;99062.56;;;0.17;100.00
4085;BME280;2057;50.858;6.572;2024-01-15T12:00:22;99060.09;;;0.17;100.00
4085;BME280;2057;50.858;6.572;2024-01-15T12:02:49;99057.88;;;0.21;100.00
4085;BME280;2057;50.858;6.572;2024-01-15T12:05:16;99050.59;;;0.24;100.00
4085;BME280;2057;50.858;6.572;2024-01-15T12:07:43;99056.78;;;0.29;100.00
4085;BME280;2057;50.858;6.572;2024-01-15T12:12:59;99041.06;;;0.44;100.00
4085;BME280;2057;50.858;6.572;2024-01-15T12:15:28;99047.63;;;0.55;100.00
4085;BME280;2057;50.858;6.572;2024-01-15T12:17:59;99047.63;;;0.69;100.00
4085;BME280;2057;50.858;6.572;2024-01-15T12:20:29;99045.75;;;0.78;100.00
4085;BME280;2057;50.858;6.572;2024-01-15T12:22:57;99046.97;;;0.71;100.00
4085;BME280;2057;50.858;6.572;2024-01-15T12:25:24;99053.22;;;0.78;100.00
4085;BME280;2057;50.858;6.572;2024-01-15T12:27:53;99045.66;;;0.76;100.00
4085;BME280;2057;50.858;6.572;2024-01-15T12:30:19;99058.31;;;0.66;100.00
4085;BME280;2057;50.858;6.572;2024-01-15T12:32:47;99071.84;;;0.56;100.00
4085;BME280;2057;50.858;6.572;2024-01-15T12:35:14;99052.81;;;0.58;100.00
4085;BME280;2057;50.858;6.572;2024-01-15T12:37:42;99055.00;;;0.54;100.00
4085;BME280;2057;50.858;6.572;2024-01-15T12:40:10;99066.03;;;0.57;100.00
4085;BME280;2057;50.858;6.572;2024-01-15T12:42:36;99044.47;;;0.58;100.00
4085;BME280;2057;50.858;6.572;2024-01-15T12:45:02;99048.69;;;0.59;100.00
4085;BME280;2057;50.858;6.572;2024-01-15T12:47:31;99059.13;;;0.53;100.00
4085;BME280;2057;50.858;6.572;2024-01-15T12:49:57;99068.81;;;0.49;100.00
4085;BME280;2057;50.858;6.572;2024-01-15T12:52:23;99063.44;;;0.42;100.00
4085;BME280;2057;50.858;6.572;2024-01-15T12:54:51;99067.59;;;0.30;100.00
4085;BME280;2057;50.858;6.572;2024-01-15T12:57:16;99075.91;;;0.17;100.00
4085;BME280;2057;50.858;6.572;2024-01-15T12:59:43;99079.81;;;0.13;100.00
4085;BME280;2057;50.858;6.572;2024-01-15T13:02:16;99079.16;;;0.16;100.00
4085;BME280;2057;50.858;6.572;2024-01-15T13:04:41;99083.06;;;0.12;100.00
4085;BME280;2057;50.858;6.572;2024-01-15T13:07:07;99087.22;;;0.12;100.00
4085;BME280;2057;50.858;6.572;2024-01-15T13:09:38;99098.81;;;0.11;100.00
4085;BME280;2057;50.858;6.572;2024-01-15T13:12:03;99093.72;;;0.10;100.00
4085;BME280;2057;50.858;6.572;2024-01-15T13:14:29;99082.66;;;0.06;100.00
4085;BME280;2057;50.858;6.572;2024-01-15T13:16:57;99085.25;;;0.08;100.00
4085;BME280;2057;50.858;6.572;2024-01-15T13:19:23;99084.41;;;0.07;100.00
4085;BME280;2057;50.858;6.572;2024-01-15T13:21:52;99084.16;;;0.16;100.00
4085;BME280;2057;50.858;6.572;2024-01-15T13:24:18;99088.06;;;0.12;100.00
4085;BME280;2057;50.858;6.572;2024-01-15T13:26:44;99087.31;;;0.13;100.00
4085;BME280;2057;50.858;6.572;2024-01-15T13:29:11;99092.91;;;0.23;100.00
4085;BME280;2057;50.858;6.572;2024-01-15T13:31:37;99085.78;;;0.15;100.00